sensor_id;sensor_type;location;lat;lon;timestamp;P1;durP1;ratioP1;P2;durP2;ratioP2
25199;SDS011;33094;48.782;9.162;2023-10-13T12:25:51;2.15;;;1.83;;
25199;SDS011;33094;48.782;9.162;2023-10-13T12:47:30;1.75;;;1.60;;
25199;SDS011;33094;48.782;9.162;2023-10-13T12:50:14;1.77;;;1.38;;
25199;SDS011;33094;48.782;9.162;2023-10-13T12:52:59;1.58;;;1.38;;
25199;SDS011;33094;48.782;9.162;2023-10-13T12:55:25;2.42;;;1.60;;
25199;SDS011;33094;48.782;9.162;2023-10-13T12:57:50;5.47;;;1.83;;
25199;SDS011;33094;48.782;9.162;2023-10-13T13:08:02;4.28;;;1.85;;
25199;SDS011;33094;48.782;9.162;2023-10-13T13:10:28;2.78;;;1.88;;
25199;SDS011;33094;48.782;9.162;2023-10-13T13:13:00;4.82;;;1.50;;
25199;SDS011;33094;48.782;9.162;2023-10-13T13:15:26;2.55;;;1.77;;
25199;SDS011;33094;48.782;9.162;2023-10-13T16:29:05;2.97;;;2.25;;
25199;SDS011;33094;48.782;9.162;2023-10-13T16:31:41;3.42;;;1.80;;
25199;SDS011;33094;48.782;9.162;2023-10-13T16:34:16;5.03;;;2.53;;
25199;SDS011;33094;48.782;9.162;2023-10-13T16:36:46;2.33;;;1.60;;
25199;SDS011;33094;48.782;9.162;2023-10-13T16:39:13;2.80;;;1.85;;
25199;SDS011;33094;48.782;9.162;2023-10-13T16:41:41;2.95;;;1.80;;
25199;SDS011;33094;48.782;9.162;2023-10-13T16:44:10;2.63;;;1.42;;
25199;SDS011;33094;48.782;9.162;2023-10-13T16:49:05;2.75;;;1.65;;
25199;SDS011;33094;48.782;9.162;2023-10-13T16:51:32;2.10;;;1.73;;
25199;SDS011;33094;48.782;9.162;2023-10-13T16:54:01;2.88;;;2.08;;
25199;SDS011;33094;48.782;9.162;2023-10-13T16:56:27;3.70;;;1.85;;
25199;SDS011;33094;48.782;9.162;2023-10-13T17:06:59;2.67;;;1.92;;
25199;SDS011;33094;48.782;9.162;2023-10-13T17:09:25;3.43;;;1.60;;
25199;SDS011;33094;48.782;9.162;2023-10-13T17:11:53;4.63;;;2.17;;
25199;SDS011;33094;48.782;9.162;2023-10-13T17:14:22;3.08;;;1.95;;
25199;SDS011;33094;48.782;9.162;2023-10-13T17:16:49;5.63;;;2.70;;
25199;SDS011;33094;48.782;9.162;2023-10-13T17:21:40;5.07;;;2.53;;
25199;SDS011;33094;48.782;9.162;2023-10-13T17:24:09;6.57;;;2.80;;
25199;SDS011;33094;48.782;9.162;2023-10-13T17:26:42;3.92;;;2.40;;
25199;SDS011;33094;48.782;9.162;2023-10-13T17:29:08;4.67;;;2.37;;
25199;SDS011;33094;48.782;9.162;2023-10-13T17:31:36;4.07;;;2.75;;
25199;SDS011;33094;48.782;9.162;2023-10-13T17:34:02;3.27;;;2.30;;
25199;SDS011;33094;48.782;9.162;2023-10-13T17:36:28;4.47;;;2.47;;
25199;SDS011;33094;48.782;9.162;2023-10-13T17:38:54;9.07;;;2.88;;
25199;SDS011;33094;48.782;9.162;2023-10-13T17:41:21;9.10;;;3.10;;
25199;SDS011;33094;48.782;9.162;2023-10-13T17:43:50;4.88;;;2.75;;
25199;SDS011;33094;48.782;9.162;2023-10-13T17:46:16;5.47;;;3.22;;
25199;SDS011;33094;48.782;9.162;2023-10-13T17:48:44;5.45;;;3.33;;
25199;SDS011;33094;48.782;9.162;2023-10-13T17:51:12;3.85;;;2.22;;
25199;SDS011;33094;48.782;9.162;2023-10-13T17:53:39;4.18;;;1.83;;
25199;SDS011;33094;48.782;9.162;2023-10-13T17:56:08;2.83;;;1.83;;
25199;SDS011;33094;48.782;9.162;2023-10-13T17:58:43;2.58;;;1.70;;
25199;SDS011;33094;48.782;9.162;2023-10-13T18:01:10;7.07;;;2.35;;
25199;SDS011;33094;48.782;9.162;2023-10-13T18:06:18;3.75;;;2.22;;
25199;SDS011;33094;48.782;9.162;2023-10-13T18:08:48;7.03;;;3.13;;
25199;SDS011;33094;48.782;9.162;2023-10-13T18:11:17;5.13;;;2.97;;
25199;SDS011;33094;48.782;9.162;2023-10-13T18:13:50;8.32;;;3.58;;
25199;SDS011;33094;48.782;9.162;2023-10-13T18:16:19;4.63;;;3.17;;
25199;SDS011;33094;48.782;9.162;2023-10-13T18:18:51;9.20;;;2.70;;
